Weather at El Loa Airport

Public forecast

Using degrees Celsius for public forecast. Weather courtesy of forecast.io.

Current aviation weather report (METAR) for El Loa Airport

Retrieved 2021/07/27 11:00 UTC (1 hour ago):

SCCF 271100Z AUTO 13018KT 9999 NCD 02/M21 Q1028

Aviation forecast (TAF) for El Loa Airport

Retrieved 2021/07/27 12:00 UTC (10 minutes ago):

TAF SCCF 271030Z 2712/2812 10012KT CAVOK TX18/2718Z TNM02/2806Z BECMG 2715/2717 27018KT TEMPO 2718/2720 28022G32KT BECMG 2723/2800 25010KT BECMG 2802/2804 12015KT